sensor_id;sensor_type;location;lat;lon;timestamp;temperature;humidity
15152;DHT22;7676;50.900;6.234;2022-09-16T00:00:01;17.40;99.90
15152;DHT22;7676;50.900;6.234;2022-09-16T00:05:07;17.30;99.90
15152;DHT22;7676;50.900;6.234;2022-09-16T00:10:10;17.30;99.90
15152;DHT22;7676;50.900;6.234;2022-09-16T00:15:13;17.30;99.90
15152;DHT22;7676;50.900;6.234;2022-09-16T00:20:16;17.40;99.90
15152;DHT22;7676;50.900;6.234;2022-09-16T00:25:18;15.80;99.90
15152;DHT22;7676;50.900;6.234;2022-09-16T00:30:21;17.30;99.90
15152;DHT22;7676;50.900;6.234;2022-09-16T00:35:23;17.00;99.90
15152;DHT22;7676;50.900;6.234;2022-09-16T00:40:26;17.00;99.90
15152;DHT22;7676;50.900;6.234;2022-09-16T00:45:29;17.20;99.90
15152;DHT22;7676;50.900;6.234;2022-09-16T00:50:59;17.10;99.90
15152;DHT22;7676;50.900;6.234;2022-09-16T00:56:07;17.20;99.90
15152;DHT22;7676;50.900;6.234;2022-09-16T01:01:11;17.30;99.90
15152;DHT22;7676;50.900;6.234;2022-09-16T01:06:14;17.30;99.90
15152;DHT22;7676;50.900;6.234;2022-09-16T01:11:19;17.10;99.90
15152;DHT22;7676;50.900;6.234;2022-09-16T01:27:39;17.00;99.90
15152;DHT22;7676;50.900;6.234;2022-09-16T01:48:24;16.80;99.90
15152;DHT22;7676;50.900;6.234;2022-09-16T02:04:12;16.80;99.90
15152;DHT22;7676;50.900;6.234;2022-09-16T02:09:22;16.50;99.90
15152;DHT22;7676;50.900;6.234;2022-09-16T02:14:28;16.60;99.90
15152;DHT22;7676;50.900;6.234;2022-09-16T02:19:41;16.50;99.90
15152;DHT22;7676;50.900;6.234;2022-09-16T02:24:45;16.60;99.90
15152;DHT22;7676;50.900;6.234;2022-09-16T02:29:56;16.40;99.90
15152;DHT22;7676;50.900;6.234;2022-09-16T02:35:00;16.50;99.90
15152;DHT22;7676;50.900;6.234;2022-09-16T02:40:09;16.40;99.90
15152;DHT22;7676;50.900;6.234;2022-09-16T02:45:13;16.10;99.90
15152;DHT22;7676;50.900;6.234;2022-09-16T02:55:46;16.10;99.90
15152;DHT22;7676;50.900;6.234;2022-09-16T03:00:53;16.10;99.90
15152;DHT22;7676;50.900;6.234;2022-09-16T03:06:13;16.00;99.90
15152;DHT22;7676;50.900;6.234;2022-09-16T03:22:24;15.90;99.90
15152;DHT22;7676;50.900;6.234;2022-09-16T03:27:39;15.90;99.90
15152;DHT22;7676;50.900;6.234;2022-09-16T03:37:57;15.90;99.90
15152;DHT22;7676;50.900;6.234;2022-09-16T03:43:09;15.90;99.90
15152;DHT22;7676;50.900;6.234;2022-09-16T03:48:13;15.70;99.90
15152;DHT22;7676;50.900;6.234;2022-09-16T03:53:15;15.80;99.90
15152;DHT22;7676;50.900;6.234;2022-09-16T03:58:18;15.80;99.90
15152;DHT22;7676;50.900;6.234;2022-09-16T04:03:20;15.80;99.90
15152;DHT22;7676;50.900;6.234;2022-09-16T04:08:23;15.90;99.90
15152;DHT22;7676;50.900;6.234;2022-09-16T04:13:28;15.90;99.90
15152;DHT22;7676;50.900;6.234;2022-09-16T04:18:31;15.90;99.90
15152;DHT22;7676;50.900;6.234;2022-09-16T04:23:34;15.30;99.90
15152;DHT22;7676;50.900;6.234;2022-09-16T04:28:37;16.00;99.90
15152;DHT22;7676;50.900;6.234;2022-09-16T04:33:40;16.00;99.90
15152;DHT22;7676;50.900;6.234;2022-09-16T04:38:44;15.70;99.90
15152;DHT22;7676;50.900;6.234;2022-09-16T04:43:51;15.70;99.90
15152;DHT22;7676;50.900;6.234;2022-09-16T04:48:55;15.60;99.90
15152;DHT22;7676;50.900;6.234;2022-09-16T04:53:59;15.60;99.90
15152;DHT22;7676;50.900;6.234;2022-09-16T04:59:04;15.30;99.90
15152;DHT22;7676;50.900;6.234;2022-09-16T05:04:08;15.20;99.90
15152;DHT22;7676;50.900;6.234;2022-09-16T05:09:11;15.30;99.90
15152;DHT22;7676;50.900;6.234;2022-09-16T05:14:17;15.30;99.90
15152;DHT22;7676;50.900;6.234;2022-09-16T05:19:19;15.30;99.90
15152;DHT22;7676;50.900;6.234;2022-09-16T05:24:22;15.20;99.90
15152;DHT22;7676;50.900;6.234;2022-09-16T05:29:24;15.20;99.90
15152;DHT22;7676;50.900;6.234;2022-09-16T05:34:27;15.20;99.90
15152;DHT22;7676;50.900;6.234;2022-09-16T05:39:30;15.00;99.90
15152;DHT22;7676;50.900;6.234;2022-09-16T05:44:32;15.00;99.90
15152;DHT22;7676;50.900;6.234;2022-09-16T05:49:35;15.20;99.90
15152;DHT22;7676;50.900;6.234;2022-09-16T05:54:38;14.80;99.90
15152;DHT22;7676;50.900;6.234;2022-09-16T05:59:41;14.90;99.90
15152;DHT22;7676;50.900;6.234;2022-09-16T06:04:43;14.90;99.90
15152;DHT22;7676;50.900;6.234;2022-09-16T06:09:46;14.80;99.90
15152;DHT22;7676;50.900;6.234;2022-09-16T06:14:48;14.80;99.90
15152;DHT22;7676;50.900;6.234;2022-09-16T06:19:51;14.90;99.90
15152;DHT22;7676;50.900;6.234;2022-09-16T06:24:54;14.90;99.90
15152;DHT22;7676;50.900;6.234;2022-09-16T06:29:56;14.90;99.90
15152;DHT22;7676;50.900;6.234;2022-09-16T06:34:59;15.00;99.90
15152;DHT22;7676;50.900;6.234;2022-09-16T06:40:02;14.90;99.90
15152;DHT22;7676;50.900;6.234;2022-09-16T06:45:05;15.00;99.90
15152;DHT22;7676;50.900;6.234;2022-09-16T06:50:08;15.20;99.90
15152;DHT22;7676;50.900;6.234;2022-09-16T06:55:11;15.10;99.90
15152;DHT22;7676;50.900;6.234;2022-09-16T07:00:14;15.10;99.90
15152;DHT22;7676;50.900;6.234;2022-09-16T07:05:16;15.20;99.90
15152;DHT22;7676;50.900;6.234;2022-09-16T07:10:22;15.10;99.90
15152;DHT22;7676;50.900;6.234;2022-09-16T07:15:26;15.10;99.90
15152;DHT22;7676;50.900;6.234;2022-09-16T07:20:29;15.10;99.90
15152;DHT22;7676;50.900;6.234;2022-09-16T07:25:32;15.30;99.90
15152;DHT22;7676;50.900;6.234;2022-09-16T07:30:37;15.30;99.90
15152;DHT22;7676;50.900;6.234;2022-09-16T07:35:40;15.50;99.90
15152;DHT22;7676;50.900;6.234;2022-09-16T07:40:42;15.50;99.90
15152;DHT22;7676;50.900;6.234;2022-09-16T07:45:45;15.40;99.90
15152;DHT22;7676;50.900;6.234;2022-09-16T07:50:58;15.50;99.90
15152;DHT22;7676;50.900;6.234;2022-09-16T07:56:13;15.50;99.90
15152;DHT22;7676;50.900;6.234;2022-09-16T08:01:16;15.60;99.90
15152;DHT22;7676;50.900;6.234;2022-09-16T08:11:26;15.80;99.90
15152;DHT22;7676;50.900;6.234;2022-09-16T08:16:29;15.70;99.90
15152;DHT22;7676;50.900;6.234;2022-09-16T08:21:31;15.70;99.90
15152;DHT22;7676;50.900;6.234;2022-09-16T08:26:34;15.90;99.90
15152;DHT22;7676;50.900;6.234;2022-09-16T08:31:37;16.20;99.90
15152;DHT22;7676;50.900;6.234;2022-09-16T08:36:40;16.30;99.90
15152;DHT22;7676;50.900;6.234;2022-09-16T08:41:49;16.30;99.90
15152;DHT22;7676;50.900;6.234;2022-09-16T08:47:32;16.20;99.90
15152;DHT22;7676;50.900;6.234;2022-09-16T08:52:37;16.20;99.90
15152;DHT22;7676;50.900;6.234;2022-09-16T08:58:06;16.40;99.90
15152;DHT22;7676;50.900;6.234;2022-09-16T09:24:37;16.70;99.90
15152;DHT22;7676;50.900;6.234;2022-09-16T09:30:21;16.60;99.90
15152;DHT22;7676;50.900;6.234;2022-09-16T09:40:57;16.80;99.90
15152;DHT22;7676;50.900;6.234;2022-09-16T09:46:22;16.70;99.90
15152;DHT22;7676;50.900;6.234;2022-09-16T09:51:56;17.10;99.90
15152;DHT22;7676;50.900;6.234;2022-09-16T10:02:21;17.10;99.90
15152;DHT22;7676;50.900;6.234;2022-09-16T10:07:24;17.00;99.90
15152;DHT22;7676;50.900;6.234;2022-09-16T10:12:33;17.10;99.90
15152;DHT22;7676;50.900;6.234;2022-09-16T10:17:36;17.10;99.90
15152;DHT22;7676;50.900;6.234;2022-09-16T10:22:39;17.60;99.90
15152;DHT22;7676;50.900;6.234;2022-09-16T10:27:41;17.60;99.90
15152;DHT22;7676;50.900;6.234;2022-09-16T10:32:45;18.00;99.90
15152;DHT22;7676;50.900;6.234;2022-09-16T10:37:54;17.80;99.90
15152;DHT22;7676;50.900;6.234;2022-09-16T10:43:02;18.00;99.90
15152;DHT22;7676;50.900;6.234;2022-09-16T10:48:11;18.20;99.90
15152;DHT22;7676;50.900;6.234;2022-09-16T10:53:44;18.20;99.90
15152;DHT22;7676;50.900;6.234;2022-09-16T10:58:47;18.60;99.90
15152;DHT22;7676;50.900;6.234;2022-09-16T11:09:59;18.00;99.90
15152;DHT22;7676;50.900;6.234;2022-09-16T11:20:39;17.00;99.90
15152;DHT22;7676;50.900;6.234;2022-09-16T11:26:12;17.40;99.90
15152;DHT22;7676;50.900;6.234;2022-09-16T11:42:34;16.60;99.90
15152;DHT22;7676;50.900;6.234;2022-09-16T11:58:38;16.80;99.90
15152;DHT22;7676;50.900;6.234;2022-09-16T12:03:51;16.90;99.90
15152;DHT22;7676;50.900;6.234;2022-09-16T12:09:10;16.70;99.90
15152;DHT22;7676;50.900;6.234;2022-09-16T12:14:17;16.60;99.90
15152;DHT22;7676;50.900;6.234;2022-09-16T12:20:03;17.30;99.90
15152;DHT22;7676;50.900;6.234;2022-09-16T12:25:24;16.60;99.90
15152;DHT22;7676;50.900;6.234;2022-09-16T12:30:46;14.80;99.90
15152;DHT22;7676;50.900;6.234;2022-09-16T12:35:57;14.70;99.90
15152;DHT22;7676;50.900;6.234;2022-09-16T12:41:24;15.00;99.90
15152;DHT22;7676;50.900;6.234;2022-09-16T12:46:53;15.30;99.90
15152;DHT22;7676;50.900;6.234;2022-09-16T12:52:20;15.40;99.90
15152;DHT22;7676;50.900;6.234;2022-09-16T13:02:46;15.40;99.90
15152;DHT22;7676;50.900;6.234;2022-09-16T13:07:53;15.60;99.90
15152;DHT22;7676;50.900;6.234;2022-09-16T13:12:59;15.90;99.90
15152;DHT22;7676;50.900;6.234;2022-09-16T13:23:23;16.30;99.90
15152;DHT22;7676;50.900;6.234;2022-09-16T13:33:41;16.60;99.90
15152;DHT22;7676;50.900;6.234;2022-09-16T13:38:50;16.70;99.90
15152;DHT22;7676;50.900;6.234;2022-09-16T13:43:53;16.70;99.90
15152;DHT22;7676;50.900;6.234;2022-09-16T13:54:27;16.80;99.90
15152;DHT22;7676;50.900;6.234;2022-09-16T14:00:02;16.50;99.90
15152;DHT22;7676;50.900;6.234;2022-09-16T14:15:46;17.00;99.90
15152;DHT22;7676;50.900;6.234;2022-09-16T14:21:18;17.00;99.90
15152;DHT22;7676;50.900;6.234;2022-09-16T14:26:22;17.10;99.90
15152;DHT22;7676;50.900;6.234;2022-09-16T14:31:30;16.80;99.90
15152;DHT22;7676;50.900;6.234;2022-09-16T14:36:36;16.30;99.90
15152;DHT22;7676;50.900;6.234;2022-09-16T14:41:52;16.10;99.90
15152;DHT22;7676;50.900;6.234;2022-09-16T14:46:58;15.60;99.90
15152;DHT22;7676;50.900;6.234;2022-09-16T14:52:23;15.50;99.90
15152;DHT22;7676;50.900;6.234;2022-09-16T14:57:28;14.40;99.90
15152;DHT22;7676;50.900;6.234;2022-09-16T15:07:38;13.70;99.90
15152;DHT22;7676;50.900;6.234;2022-09-16T15:13:08;14.00;99.90
15152;DHT22;7676;50.900;6.234;2022-09-16T15:23:25;14.80;99.90
15152;DHT22;7676;50.900;6.234;2022-09-16T15:28:29;14.90;99.90
15152;DHT22;7676;50.900;6.234;2022-09-16T15:33:39;15.20;99.90
15152;DHT22;7676;50.900;6.234;2022-09-16T15:38:42;15.30;99.90
15152;DHT22;7676;50.900;6.234;2022-09-16T15:43:46;15.50;99.90
15152;DHT22;7676;50.900;6.234;2022-09-16T15:49:00;15.50;99.90
15152;DHT22;7676;50.900;6.234;2022-09-16T15:59:33;15.40;99.90
15152;DHT22;7676;50.900;6.234;2022-09-16T16:04:36;15.40;99.90
15152;DHT22;7676;50.900;6.234;2022-09-16T16:09:40;15.50;99.90
15152;DHT22;7676;50.900;6.234;2022-09-16T16:14:43;15.50;99.90
15152;DHT22;7676;50.900;6.234;2022-09-16T16:19:49;15.50;99.90
15152;DHT22;7676;50.900;6.234;2022-09-16T16:24:52;15.30;99.90
15152;DHT22;7676;50.900;6.234;2022-09-16T16:29:54;15.10;99.90
15152;DHT22;7676;50.900;6.234;2022-09-16T16:34:57;15.00;99.90
15152;DHT22;7676;50.900;6.234;2022-09-16T16:40:00;15.00;99.90
15152;DHT22;7676;50.900;6.234;2022-09-16T16:45:03;15.10;99.90
15152;DHT22;7676;50.900;6.234;2022-09-16T16:50:05;15.10;99.90
15152;DHT22;7676;50.900;6.234;2022-09-16T16:55:08;15.00;99.90
15152;DHT22;7676;50.900;6.234;2022-09-16T17:00:12;15.20;99.90
15152;DHT22;7676;50.900;6.234;2022-09-16T17:05:15;15.20;99.90
15152;DHT22;7676;50.900;6.234;2022-09-16T17:10:18;15.10;99.90
15152;DHT22;7676;50.900;6.234;2022-09-16T17:15:20;15.20;99.90
15152;DHT22;7676;50.900;6.234;2022-09-16T17:20:23;15.00;99.90
15152;DHT22;7676;50.900;6.234;2022-09-16T17:25:26;14.90;99.90
15152;DHT22;7676;50.900;6.234;2022-09-16T17:30:29;14.90;99.90
15152;DHT22;7676;50.900;6.234;2022-09-16T17:35:31;14.90;99.90
15152;DHT22;7676;50.900;6.234;2022-09-16T17:40:34;14.80;99.90
15152;DHT22;7676;50.900;6.234;2022-09-16T17:45:36;14.70;99.90
15152;DHT22;7676;50.900;6.234;2022-09-16T17:50:39;14.70;99.90
15152;DHT22;7676;50.900;6.234;2022-09-16T17:55:42;14.70;99.90
15152;DHT22;7676;50.900;6.234;2022-09-16T18:00:44;14.60;99.90
15152;DHT22;7676;50.900;6.234;2022-09-16T18:05:47;14.50;99.90
15152;DHT22;7676;50.900;6.234;2022-09-16T18:10:52;14.50;99.90
15152;DHT22;7676;50.900;6.234;2022-09-16T18:15:54;14.40;99.90
15152;DHT22;7676;50.900;6.234;2022-09-16T18:20:57;14.50;99.90
15152;DHT22;7676;50.900;6.234;2022-09-16T18:26:17;14.60;99.90
15152;DHT22;7676;50.900;6.234;2022-09-16T18:31:21;14.60;99.90
15152;DHT22;7676;50.900;6.234;2022-09-16T18:36:28;14.60;99.90
15152;DHT22;7676;50.900;6.234;2022-09-16T18:41:36;14.50;99.90
15152;DHT22;7676;50.900;6.234;2022-09-16T18:46:39;14.50;99.90
15152;DHT22;7676;50.900;6.234;2022-09-16T18:51:47;14.50;99.90
15152;DHT22;7676;50.900;6.234;2022-09-16T18:56:58;14.50;99.90
15152;DHT22;7676;50.900;6.234;2022-09-16T19:02:02;14.30;99.90
15152;DHT22;7676;50.900;6.234;2022-09-16T19:07:09;13.90;99.90
15152;DHT22;7676;50.900;6.234;2022-09-16T19:12:13;14.10;99.90
15152;DHT22;7676;50.900;6.234;2022-09-16T19:17:15;14.20;99.90
15152;DHT22;7676;50.900;6.234;2022-09-16T19:22:18;14.30;99.90
15152;DHT22;7676;50.900;6.234;2022-09-16T19:27:21;14.10;99.90
15152;DHT22;7676;50.900;6.234;2022-09-16T19:32:23;14.00;99.90
15152;DHT22;7676;50.900;6.234;2022-09-16T19:37:26;13.90;99.90
15152;DHT22;7676;50.900;6.234;2022-09-16T19:42:28;13.90;99.90
15152;DHT22;7676;50.900;6.234;2022-09-16T19:47:31;13.80;99.90
15152;DHT22;7676;50.900;6.234;2022-09-16T19:52:33;13.70;99.90
15152;DHT22;7676;50.900;6.234;2022-09-16T19:57:39;13.70;99.90
15152;DHT22;7676;50.900;6.234;2022-09-16T20:02:43;13.50;99.90
15152;DHT22;7676;50.900;6.234;2022-09-16T20:07:46;13.80;99.90
15152;DHT22;7676;50.900;6.234;2022-09-16T20:12:48;13.70;99.90
15152;DHT22;7676;50.900;6.234;2022-09-16T20:18:00;13.70;99.90
15152;DHT22;7676;50.900;6.234;2022-09-16T20:23:03;13.50;99.90
15152;DHT22;7676;50.900;6.234;2022-09-16T20:28:05;13.60;99.90
15152;DHT22;7676;50.900;6.234;2022-09-16T20:33:08;13.50;99.90
15152;DHT22;7676;50.900;6.234;2022-09-16T20:38:10;13.50;99.90
15152;DHT22;7676;50.900;6.234;2022-09-16T20:43:13;13.50;99.90
15152;DHT22;7676;50.900;6.234;2022-09-16T20:48:16;13.60;99.90
15152;DHT22;7676;50.900;6.234;2022-09-16T20:53:19;13.50;99.90
15152;DHT22;7676;50.900;6.234;2022-09-16T20:58:22;13.30;99.90
15152;DHT22;7676;50.900;6.234;2022-09-16T21:03:24;13.40;99.90
15152;DHT22;7676;50.900;6.234;2022-09-16T21:08:27;13.30;99.90
15152;DHT22;7676;50.900;6.234;2022-09-16T21:13:35;13.50;99.90
15152;DHT22;7676;50.900;6.234;2022-09-16T21:18:38;13.30;99.90
15152;DHT22;7676;50.900;6.234;2022-09-16T21:23:42;13.40;99.90
15152;DHT22;7676;50.900;6.234;2022-09-16T21:28:57;13.20;99.90
15152;DHT22;7676;50.900;6.234;2022-09-16T21:34:00;13.10;99.90
15152;DHT22;7676;50.900;6.234;2022-09-16T21:39:07;13.30;99.90
15152;DHT22;7676;50.900;6.234;2022-09-16T21:44:10;13.30;99.90
15152;DHT22;7676;50.900;6.234;2022-09-16T21:49:15;13.20;99.90
15152;DHT22;7676;50.900;6.234;2022-09-16T21:54:24;13.40;99.90
15152;DHT22;7676;50.900;6.234;2022-09-16T21:59:27;13.30;99.90
15152;DHT22;7676;50.900;6.234;2022-09-16T22:04:30;13.20;99.90
15152;DHT22;7676;50.900;6.234;2022-09-16T22:09:32;13.20;99.90
15152;DHT22;7676;50.900;6.234;2022-09-16T22:14:35;13.10;99.90
15152;DHT22;7676;50.900;6.234;2022-09-16T22:19:39;12.90;99.90
15152;DHT22;7676;50.900;6.234;2022-09-16T22:24:41;12.70;99.90
15152;DHT22;7676;50.900;6.234;2022-09-16T22:29:44;13.00;99.90
15152;DHT22;7676;50.900;6.234;2022-09-16T22:34:46;13.10;99.90
15152;DHT22;7676;50.900;6.234;2022-09-16T22:39:50;12.90;99.90
15152;DHT22;7676;50.900;6.234;2022-09-16T22:44:52;12.70;99.90
15152;DHT22;7676;50.900;6.234;2022-09-16T22:49:55;12.70;99.90
15152;DHT22;7676;50.900;6.234;2022-09-16T22:54:57;12.70;99.90
15152;DHT22;7676;50.900;6.234;2022-09-16T23:00:00;12.70;99.90
15152;DHT22;7676;50.900;6.234;2022-09-16T23:05:03;12.70;99.90
15152;DHT22;7676;50.900;6.234;2022-09-16T23:10:08;13.00;99.90
15152;DHT22;7676;50.900;6.234;2022-09-16T23:15:12;12.80;99.90
15152;DHT22;7676;50.900;6.234;2022-09-16T23:20:15;12.90;99.90
15152;DHT22;7676;50.900;6.234;2022-09-16T23:25:18;12.80;99.90
15152;DHT22;7676;50.900;6.234;2022-09-16T23:30:21;13.00;99.90
15152;DHT22;7676;50.900;6.234;2022-09-16T23:35:24;12.90;99.90
15152;DHT22;7676;50.900;6.234;2022-09-16T23:40:26;12.90;99.90
15152;DHT22;7676;50.900;6.234;2022-09-16T23:45:30;12.90;99.90
15152;DHT22;7676;50.900;6.234;2022-09-16T23:50:33;12.80;99.90
15152;DHT22;7676;50.900;6.234;2022-09-16T23:55:42;12.80;99.90
